Varna, Bulgaria
Current Conditions -  °F | °C
As of 9:00 PM on Friday 21 Nov 2014 (Local Time) from LBWN Reporting Station
Light Rain Light Rain  
Wind Chill: -1°   Ceiling: 4900
Heat Index:   Visibility: 6mi
Dew Point:   Wind: 11mph
Humidity: 87%   Direction: NA
Pressure: 30.09"   Gusts: NA
Location:  43.21°N, 27.9°E
Report Text: LBWN 211800Z VRB05MPS 9999 -RA FEW010 SCT021 BKN049 03/01 Q1019 NOSIG
Loading
Personal Weather Stations






























Interactive Weather Map New forecast layout! Learn more

10-Day Weather Forecast

Advertisements
Track Severe Weather on mobile